Middletown, PA

1:39 AM EDT on April 24, 2017 (GMT -0400)
Downtown | | Change Station

Elev 338 ft 40.20 °N, 76.73 °W | Updated 5 seconds ago

Partly Cloudy
Partly Cloudy
46.8 °F
Feels Like 47 °F
N
0.0
Wind Variable Wind from ESE
Gusts 0.0 mph

Today
High -- | Low -- °F
--% Chance of Precip.
Yesterday
High -- | Low -- °F
Precip. -- in
Pressure 30.09 in
Visibility 10.0 miles
Clouds Few 13000 ft
Few 25000 ft
Windchill 47 °F
Dew Point 46 °F
Humidity 98%
Rainfall 0.00 in
Snow Depth Not available.
6:15 AM 7:55 PM
Waning Crescent, 7% visible
METAR KMDT 240456Z 00000KT 10SM FEW130 FEW250 10/07 A3009 RMK AO2 SLP190 T01000072 401890039
Pressure 30.09 in
Visibility 10.0 miles
Clouds Few 13000 ft
Few 25000 ft
Windchill 47 °F
Dew Point 46 °F
Humidity 98%
Rainfall 0.00 in
Snow Depth Not available.
6:15 AM 7:55 PM
Waning Crescent, 7% visible
METAR KMDT 240456Z 00000KT 10SM FEW130 FEW250 10/07 A3009 RMK AO2 SLP190 T01000072 401890039

Get Severe Weather Alerts

Thanks for signing up!

Be on the lookout for a verification email in your inbox.

You'll start receiving the daily forecast at 8 AM.

×

10-Day Weather Forecast

Almanac

Astronomy

Apr. 24, 2017 Rise Set
Actual Time
Civil Twilight
Nautical Twilight
Astronomical Twilight
Moon
Length of Visible Light
Length of Day
Tomorrow will be .
, % of the Moon is Illuminated

Today's Extremes

State Highs State Lows

Community

WunderPhotos

WunderBlog® & News

Nearby

Air Quality

  Air Quality AQ Index Pollutant
Not available.

Snow Depth

Station Depth Elevation

Earthquake Activity

City Distance Mag. Time & Date
Minimum magnitude displayed is 2.5.

Coastal Water Temperatures

Place Temperature

Stations

Nearby Weather Stations

Station Location Temp. Windchill Dew Point Humidity Wind Precip. Elev Updated Type
                   

Watches & Warnings

There are currently no watches in effect.